Shanghai City, Illinois
Current Conditions -  °F | °C
As of 10:15 PM on Sunday 25 Jan 2015 (Local Time) from KGBG Reporting Station
Clear Clear  
Wind Chill: 11°   Ceiling: Unl
Heat Index: 21°   Visibility: 10mi
Dew Point: 18°   Wind: 9mph
Humidity: 87%   Direction: 340°NNW
Pressure: 30.04"   Gusts: NA
Location:  41.0552°N, 90.5431°W
Report Text: KGBG 260415Z AUTO 34008KT 10SM CLR M06/M08 A3004 RMK AO2 T10611079
Loading
Personal Weather Stations






























Interactive Weather Map New forecast layout! Learn more

10-Day Weather Forecast

Advertisements
Track Severe Weather on mobile